Time;durP1;ratioP1;P1;durP2;ratioP2;P2;SDS_P1;SDS_P2;PMS_P1;PMS_P2;Temp;Humidity;BMP_temperature;BMP_pressure;BME280_temperature;BME280_humidity;BME280_pressure;Samples;Min_cycle;Max_cycle;Signal;HPM_P1;HPM_P2
2021/12/31 00:01:12;;;;;;;2.10;1.57;;;14.00;97.30;;;;;;5033178;28;20192;-84
2021/12/31 00:03:38;;;;;;;2.00;1.80;;;14.00;97.30;;;;;;5031620;28;20219;-85
2021/12/31 00:06:03;;;;;;;2.63;1.70;;;14.00;97.30;;;;;;5032617;28;20201;-85
2021/12/31 00:08:29;;;;;;;4.27;1.97;;;14.00;97.30;;;;;;5031601;28;20177;-85
2021/12/31 00:10:59;;;;;;;2.93;1.30;;;14.00;97.30;;;;;;5031510;28;20220;-85
2021/12/31 00:13:26;;;;;;;1.53;1.17;;;14.00;97.30;;;;;;5031221;28;20228;-84
2021/12/31 00:15:51;;;;;;;3.47;1.40;;;14.00;97.30;;;;;;5032624;28;20431;-84
2021/12/31 00:18:17;;;;;;;2.17;1.60;;;14.00;97.30;;;;;;5031351;28;20422;-84
2021/12/31 00:20:42;;;;;;;4.53;1.60;;;14.00;97.30;;;;;;5031250;28;20176;-85
2021/12/31 00:23:10;;;;;;;2.50;1.60;;;14.00;97.30;;;;;;5031253;28;20181;-84
2021/12/31 00:25:39;;;;;;;2.47;1.50;;;13.90;97.30;;;;;;5030815;28;20195;-84
2021/12/31 00:28:07;;;;;;;2.33;1.90;;;13.90;97.30;;;;;;5031121;28;20801;-84
2021/12/31 00:30:34;;;;;;;1.37;1.27;;;13.90;97.30;;;;;;5032206;28;20760;-84
2021/12/31 00:33:01;;;;;;;2.00;1.30;;;13.90;97.30;;;;;;5030737;28;20439;-84
2021/12/31 00:35:28;;;;;;;1.70;1.47;;;14.00;97.30;;;;;;5031737;28;20455;-84
2021/12/31 00:37:53;;;;;;;1.40;1.30;;;13.90;97.30;;;;;;5031976;28;20411;-84
2021/12/31 00:40:19;;;;;;;1.47;1.37;;;13.90;97.30;;;;;;5014181;28;20423;-84
2021/12/31 00:42:45;;;;;;;2.07;1.37;;;13.90;97.30;;;;;;5015871;28;20575;-86
2021/12/31 00:45:14;;;;;;;2.00;1.50;;;13.90;97.30;;;;;;5014296;28;20181;-86
2021/12/31 00:47:40;;;;;;;2.70;1.60;;;13.90;97.30;;;;;;5014279;28;20790;-85
2021/12/31 00:50:06;;;;;;;2.90;1.40;;;13.90;97.30;;;;;;5014356;28;20465;-86
2021/12/31 00:52:31;;;;;;;2.03;1.60;;;13.90;97.30;;;;;;5013996;28;20238;-85
2021/12/31 00:54:57;;;;;;;2.73;1.43;;;13.90;97.30;;;;;;5031802;28;20466;-85
2021/12/31 00:57:22;;;;;;;2.70;2.20;;;14.00;97.30;;;;;;5014074;28;20204;-85
2021/12/31 00:59:48;;;;;;;2.13;1.43;;;13.90;97.30;;;;;;5016630;28;20642;-85
2021/12/31 01:02:18;;;;;;;2.13;1.60;;;14.00;97.30;;;;;;5025273;28;20183;-86
2021/12/31 01:04:46;;;;;;;2.97;1.33;;;14.00;97.30;;;;;;5025438;28;20180;-85
2021/12/31 01:07:11;;;;;;;2.23;1.60;;;14.00;97.30;;;;;;5025438;28;20442;-87
2021/12/31 01:09:37;;;;;;;2.07;1.50;;;14.00;97.30;;;;;;5024063;28;20446;-86
2021/12/31 01:12:07;;;;;;;3.57;2.03;;;14.00;97.30;;;;;;5025296;28;20293;-86
2021/12/31 01:17:22;;;;;;;2.20;1.30;;;13.90;97.30;;;;;;5034077;28;20426;-86
2021/12/31 01:19:48;;;;;;;2.27;1.60;;;14.00;97.30;;;;;;5014173;28;20685;-86
2021/12/31 01:22:21;;;;;;;2.00;1.83;;;14.00;97.30;;;;;;5014017;28;20413;-85
2021/12/31 01:24:47;;;;;;;2.57;1.50;;;14.00;97.30;;;;;;5032342;28;20407;-85
2021/12/31 01:27:17;;;;;;;4.20;1.80;;;14.00;97.30;;;;;;5013879;28;20443;-86
2021/12/31 01:29:42;;;;;;;1.73;1.67;;;14.00;97.30;;;;;;5013974;28;20423;-86
2021/12/31 01:32:09;;;;;;;2.93;1.37;;;14.00;97.30;;;;;;5013590;28;20419;-86
2021/12/31 01:34:35;;;;;;;3.07;1.60;;;14.00;97.30;;;;;;5018915;28;20235;-85
2021/12/31 01:37:01;;;;;;;4.03;1.50;;;14.00;97.30;;;;;;5030148;28;20474;-85
2021/12/31 01:39:27;;;;;;;2.40;1.60;;;14.00;97.30;;;;;;5029869;28;20176;-86
2021/12/31 01:41:56;;;;;;;2.10;1.53;;;14.00;97.30;;;;;;5030093;28;20514;-84
2021/12/31 01:44:23;;;;;;;2.43;1.97;;;14.00;97.30;;;;;;5029767;28;20523;-85
2021/12/31 01:46:57;;;;;;;3.83;2.20;;;14.00;97.30;;;;;;5029626;28;20451;-84
2021/12/31 01:49:27;;;;;;;1.60;1.50;;;14.00;97.30;;;;;;5029659;28;20430;-86
2021/12/31 01:51:53;;;;;;;3.80;2.37;;;14.00;97.30;;;;;;5030993;28;20415;-86
2021/12/31 01:54:18;;;;;;;1.53;1.43;;;14.00;97.30;;;;;;5030124;28;20473;-86
2021/12/31 01:56:44;;;;;;;2.40;1.30;;;13.90;97.30;;;;;;5029710;28;20196;-84
2021/12/31 01:59:11;;;;;;;2.00;1.30;;;13.90;97.30;;;;;;5029878;28;20279;-85
2021/12/31 02:01:36;;;;;;;1.27;1.17;;;13.90;97.30;;;;;;5029563;28;20917;-86
2021/12/31 02:04:02;;;;;;;2.50;1.40;;;13.90;97.30;;;;;;5030924;28;20417;-86
2021/12/31 02:06:28;;;;;;;3.30;1.50;;;13.80;97.30;;;;;;5029548;28;20298;-85
2021/12/31 02:08:53;;;;;;;1.70;1.30;;;13.80;97.30;;;;;;5031050;28;20172;-85
2021/12/31 02:11:20;;;;;;;1.50;1.37;;;13.70;97.30;;;;;;5029907;28;20771;-85
2021/12/31 02:13:47;;;;;;;2.70;1.57;;;13.70;97.30;;;;;;5012515;28;20208;-86
2021/12/31 02:16:14;;;;;;;1.30;1.20;;;13.80;97.30;;;;;;5012716;28;20945;-84
2021/12/31 02:18:43;;;;;;;2.20;1.23;;;13.70;97.30;;;;;;5031042;28;20407;-86
2021/12/31 02:21:13;;;;;;;1.50;1.47;;;13.70;97.30;;;;;;5016040;28;20454;-84
2021/12/31 02:23:44;;;;;;;3.50;1.43;;;13.60;97.30;;;;;;5017012;28;20419;-85
2021/12/31 02:26:11;;;;;;;1.57;1.40;;;13.70;97.30;;;;;;5016774;28;20477;-86
2021/12/31 02:28:37;;;;;;;2.60;1.37;;;13.70;97.30;;;;;;5017023;28;20526;-86
2021/12/31 02:31:03;;;;;;;2.80;1.40;;;13.60;97.30;;;;;;5016544;28;21010;-86
2021/12/31 02:33:28;;;;;;;1.67;1.47;;;13.60;97.30;;;;;;5016811;28;20173;-85
2021/12/31 02:35:54;;;;;;;1.20;1.10;;;13.60;97.30;;;;;;5032868;28;20454;-85
2021/12/31 02:38:19;;;;;;;1.97;1.43;;;13.60;97.30;;;;;;5033299;28;20172;-85
2021/12/31 02:40:45;;;;;;;3.10;1.57;;;13.60;97.30;;;;;;5032946;28;20176;-86
2021/12/31 02:43:10;;;;;;;2.03;1.60;;;13.50;97.30;;;;;;5033314;28;20177;-86
2021/12/31 02:45:37;;;;;;;2.43;1.30;;;13.50;97.30;;;;;;5034358;28;20250;-86
2021/12/31 02:48:06;;;;;;;4.10;1.50;;;13.40;97.30;;;;;;5034900;28;20203;-86
2021/12/31 02:50:38;;;;;;;4.80;2.10;;;13.40;97.30;;;;;;5033026;28;20506;-86
2021/12/31 02:53:10;;;;;;;1.63;1.60;;;13.40;97.30;;;;;;5033285;28;20940;-85
2021/12/31 02:55:37;;;;;;;1.40;1.20;;;13.40;97.30;;;;;;5032919;28;20462;-84
2021/12/31 02:58:03;;;;;;;4.03;1.53;;;13.40;97.30;;;;;;5033066;28;20415;-87
2021/12/31 03:00:30;;;;;;;1.80;1.37;;;13.40;97.30;;;;;;5032945;28;20426;-85
2021/12/31 03:02:57;;;;;;;4.70;1.30;;;13.40;97.30;;;;;;5032745;28;20415;-85
2021/12/31 03:05:23;;;;;;;2.80;1.57;;;13.40;97.30;;;;;;5033875;28;20419;-85
2021/12/31 03:07:50;;;;;;;1.90;1.57;;;13.40;97.30;;;;;;5032552;28;20994;-86
2021/12/31 03:10:17;;;;;;;3.67;2.33;;;13.40;97.30;;;;;;5032655;28;20274;-86
2021/12/31 03:12:42;;;;;;;3.80;1.70;;;13.30;97.30;;;;;;5032322;28;20423;-85
2021/12/31 03:15:09;;;;;;;1.90;1.60;;;13.30;97.30;;;;;;5032169;28;20473;-85
2021/12/31 03:17:36;;;;;;;2.77;2.03;;;13.30;97.30;;;;;;5033580;28;20204;-86
2021/12/31 03:20:10;;;;;;;1.93;1.83;;;13.30;97.30;;;;;;5032531;28;20416;-86
2021/12/31 03:22:35;;;;;;;2.43;1.87;;;13.30;97.30;;;;;;5033600;28;20921;-86
2021/12/31 03:25:01;;;;;;;3.80;2.17;;;13.40;97.30;;;;;;5032571;28;20423;-86
2021/12/31 03:27:27;;;;;;;2.03;1.67;;;13.30;97.30;;;;;;5033342;28;20520;-86
2021/12/31 03:29:54;;;;;;;1.80;1.53;;;13.40;97.30;;;;;;5032486;28;20585;-85
2021/12/31 03:32:20;;;;;;;1.77;1.63;;;13.40;97.30;;;;;;5033423;28;20191;-86
2021/12/31 03:34:45;;;;;;;2.73;2.10;;;13.40;97.30;;;;;;5033205;28;20463;-85
2021/12/31 03:37:11;;;;;;;2.07;1.80;;;13.40;97.30;;;;;;5033383;28;20192;-86
2021/12/31 03:39:36;;;;;;;2.93;2.00;;;13.40;97.30;;;;;;5015797;28;20179;-85
2021/12/31 03:42:02;;;;;;;2.27;1.90;;;13.40;97.30;;;;;;5015798;28;20597;-85
2021/12/31 03:44:27;;;;;;;3.83;2.40;;;13.40;97.30;;;;;;5015535;28;20207;-85
2021/12/31 03:46:53;;;;;;;3.10;2.00;;;13.40;97.30;;;;;;5015333;28;20227;-85
2021/12/31 03:49:18;;;;;;;1.87;1.83;;;13.40;97.30;;;;;;5015538;28;20188;-86
2021/12/31 03:51:44;;;;;;;2.60;1.77;;;13.40;97.30;;;;;;5015370;28;20212;-86
2021/12/31 03:54:09;;;;;;;6.60;1.90;;;13.40;97.30;;;;;;5015163;28;20207;-86
2021/12/31 03:56:35;;;;;;;1.73;1.50;;;13.40;97.30;;;;;;5014927;28;20724;-85
2021/12/31 03:59:00;;;;;;;3.73;1.90;;;13.40;97.30;;;;;;5015506;28;20555;-85
2021/12/31 04:01:27;;;;;;;2.30;1.70;;;13.40;97.30;;;;;;5015062;28;20639;-86
2021/12/31 04:03:54;;;;;;;1.70;1.53;;;13.50;97.30;;;;;;5014992;28;20176;-84
2021/12/31 04:06:21;;;;;;;3.23;1.40;;;13.50;97.30;;;;;;5015066;28;20541;-86
2021/12/31 04:08:47;;;;;;;1.87;1.40;;;13.50;97.30;;;;;;5015065;28;20419;-84
2021/12/31 04:11:13;;;;;;;1.77;1.50;;;13.40;97.30;;;;;;5014909;28;20407;-85
2021/12/31 04:13:39;;;;;;;2.90;1.70;;;13.40;97.30;;;;;;5015472;28;20854;-84
2021/12/31 04:16:05;;;;;;;2.23;1.70;;;13.50;97.30;;;;;;5014835;28;20192;-83
2021/12/31 04:18:30;;;;;;;1.73;1.70;;;13.50;97.30;;;;;;5014678;28;20420;-86
2021/12/31 04:20:57;;;;;;;2.53;2.03;;;13.50;97.30;;;;;;5014622;28;20187;-84
2021/12/31 04:23:33;;;;;;;2.60;1.27;;;13.60;97.30;;;;;;5014484;28;20591;-84
2021/12/31 04:25:59;;;;;;;1.53;1.30;;;13.50;97.30;;;;;;5014938;28;20463;-85
2021/12/31 04:28:27;;;;;;;2.23;1.40;;;13.40;97.30;;;;;;5032107;28;20960;-85
2021/12/31 04:30:52;;;;;;;2.70;1.40;;;13.30;97.30;;;;;;5014472;28;20914;-85
2021/12/31 04:33:18;;;;;;;1.47;1.27;;;13.10;97.30;;;;;;5014406;28;20422;-85
2021/12/31 04:35:44;;;;;;;2.60;1.30;;;13.10;97.30;;;;;;5029169;28;20247;-85
2021/12/31 04:38:09;;;;;;;2.43;1.30;;;13.00;97.30;;;;;;5031001;28;20272;-85
2021/12/31 04:40:35;;;;;;;1.73;1.27;;;13.00;97.30;;;;;;5030767;28;20635;-85
2021/12/31 04:43:00;;;;;;;5.73;1.83;;;13.00;97.30;;;;;;5030359;28;20183;-85
2021/12/31 04:45:26;;;;;;;2.77;1.73;;;13.00;97.30;;;;;;5030958;28;20176;-85
2021/12/31 04:47:52;;;;;;;3.23;1.53;;;12.90;97.30;;;;;;5031050;28;20615;-83
2021/12/31 04:50:17;;;;;;;4.40;2.10;;;12.90;97.30;;;;;;5030688;28;20177;-85
2021/12/31 04:52:43;;;;;;;2.70;1.60;;;12.90;97.30;;;;;;5031686;28;20411;-85
2021/12/31 04:55:10;;;;;;;2.47;2.03;;;12.90;97.30;;;;;;5030541;28;20663;-85
2021/12/31 04:57:35;;;;;;;1.83;1.57;;;12.90;97.30;;;;;;5030414;28;20203;-85
2021/12/31 05:00:01;;;;;;;2.33;1.90;;;12.90;97.30;;;;;;5030640;28;20412;-85
2021/12/31 05:02:26;;;;;;;2.00;1.60;;;13.00;97.30;;;;;;5030331;28;20176;-85
2021/12/31 05:04:52;;;;;;;1.33;1.23;;;13.00;97.30;;;;;;5030352;28;20173;-85
2021/12/31 05:07:17;;;;;;;1.27;1.20;;;13.00;97.30;;;;;;5030177;28;20206;-85
2021/12/31 05:09:45;;;;;;;1.63;1.50;;;13.00;97.30;;;;;;5030446;28;20176;-85
2021/12/31 05:12:15;;;;;;;1.93;1.50;;;13.10;97.30;;;;;;5030286;28;20177;-85
2021/12/31 05:14:42;;;;;;;1.37;1.30;;;13.10;97.30;;;;;;5031298;28;20462;-84
2021/12/31 05:17:08;;;;;;;1.20;1.13;;;13.20;97.30;;;;;;5029875;28;20427;-85
2021/12/31 05:19:36;;;;;;;2.03;1.17;;;13.20;97.30;;;;;;5029975;28;20987;-84
2021/12/31 05:22:01;;;;;;;1.37;1.10;;;13.30;97.30;;;;;;5030324;28;20183;-85
2021/12/31 05:24:27;;;;;;;2.97;1.30;;;13.30;97.30;;;;;;5031473;28;20415;-85
2021/12/31 05:26:52;;;;;;;2.60;1.23;;;13.30;97.30;;;;;;5029983;28;20229;-85
2021/12/31 05:29:18;;;;;;;1.37;1.10;;;13.30;97.30;;;;;;5029740;28;20228;-84
2021/12/31 05:31:43;;;;;;;2.77;1.23;;;13.30;97.30;;;;;;5031171;28;20191;-85
2021/12/31 05:34:09;;;;;;;1.13;1.03;;;13.40;97.30;;;;;;5030883;28;20277;-85
2021/12/31 05:36:36;;;;;;;2.50;1.60;;;13.30;97.30;;;;;;5030924;28;20728;-85
2021/12/31 05:39:02;;;;;;;5.87;1.40;;;13.40;97.30;;;;;;5013485;28;20176;-85
2021/12/31 05:41:29;;;;;;;3.17;1.40;;;13.30;97.30;;;;;;5013135;28;20478;-84
2021/12/31 05:43:54;;;;;;;1.70;1.10;;;13.40;97.30;;;;;;5013205;28;20544;-85
2021/12/31 05:46:20;;;;;;;1.10;1.00;;;13.40;97.30;;;;;;5013094;28;20455;-85
2021/12/31 05:48:45;;;;;;;4.80;1.50;;;13.40;97.30;;;;;;5012923;28;20246;-85
2021/12/31 05:51:11;;;;;;;1.20;1.00;;;13.40;97.30;;;;;;5013002;28;20172;-84
2021/12/31 05:53:36;;;;;;;1.23;1.00;;;13.40;97.30;;;;;;5013049;28;20219;-85
2021/12/31 05:56:02;;;;;;;1.87;1.03;;;13.40;97.30;;;;;;5012146;28;20282;-85
2021/12/31 05:58:27;;;;;;;1.17;1.07;;;13.50;97.30;;;;;;5030616;28;20233;-85
2021/12/31 06:00:53;;;;;;;1.53;1.20;;;13.50;97.30;;;;;;5013108;28;20677;-85
2021/12/31 06:03:18;;;;;;;1.63;1.20;;;13.50;97.30;;;;;;5013172;28;20271;-85
2021/12/31 06:05:44;;;;;;;1.40;1.10;;;13.50;97.30;;;;;;5013037;28;20201;-85
2021/12/31 06:08:10;;;;;;;1.30;1.00;;;13.60;97.30;;;;;;5013066;28;20223;-85
2021/12/31 06:10:40;;;;;;;5.73;1.70;;;13.60;97.30;;;;;;5013303;28;20874;-85
2021/12/31 06:13:06;;;;;;;1.33;1.10;;;13.60;97.30;;;;;;5012822;28;20531;-85
2021/12/31 06:15:33;;;;;;;1.33;1.20;;;13.60;97.30;;;;;;5012828;28;20469;-86
2021/12/31 06:17:58;;;;;;;1.20;1.10;;;13.60;97.30;;;;;;5030692;28;20187;-85
2021/12/31 06:20:28;;;;;;;1.40;1.30;;;13.60;97.30;;;;;;5012906;28;20408;-85
2021/12/31 06:22:59;;;;;;;1.37;1.20;;;13.60;97.30;;;;;;5012445;28;20177;-85
2021/12/31 06:25:28;;;;;;;1.43;1.20;;;13.60;97.30;;;;;;5003035;28;20435;-85
2021/12/31 06:28:01;;;;;;;2.67;1.30;;;13.60;97.30;;;;;;5003242;28;20479;-86
2021/12/31 06:30:27;;;;;;;1.27;1.10;;;13.60;97.30;;;;;;5001159;28;20415;-85
2021/12/31 06:32:53;;;;;;;2.00;1.40;;;13.60;97.30;;;;;;5010444;28;20448;-85
2021/12/31 06:35:18;;;;;;;1.63;1.10;;;13.60;97.30;;;;;;5001398;28;20577;-85
2021/12/31 06:37:44;;;;;;;1.63;1.10;;;13.60;97.30;;;;;;5003420;28;20193;-85
2021/12/31 06:40:11;;;;;;;2.93;1.20;;;13.60;97.30;;;;;;5001966;28;20173;-85
2021/12/31 06:42:37;;;;;;;1.70;1.23;;;13.70;97.30;;;;;;5001300;28;20643;-85
2021/12/31 06:45:04;;;;;;;3.07;1.37;;;13.60;97.30;;;;;;5023198;28;20418;-85
2021/12/31 06:47:29;;;;;;;3.23;1.27;;;13.60;97.30;;;;;;5024231;28;20197;-84
2021/12/31 06:49:55;;;;;;;2.10;1.30;;;13.60;97.30;;;;;;5002726;28;20446;-85
2021/12/31 06:52:20;;;;;;;1.13;1.10;;;13.70;97.30;;;;;;5034172;23;20220;-91
2021/12/31 06:54:50;;;;;;;1.40;1.23;;;13.70;97.30;;;;;;5034291;28;20235;-86
2021/12/31 06:57:19;;;;;;;1.67;1.37;;;13.70;97.30;;;;;;5033390;28;20192;-87
2021/12/31 07:00:20;;;;;;;1.30;1.20;;;13.70;97.30;;;;;;5034363;28;20526;-89
2021/12/31 07:03:10;;;;;;;2.67;1.60;;;13.70;97.30;;;;;;5027990;28;20427;-89
2021/12/31 07:06:10;;;;;;;1.60;1.27;;;13.80;97.30;;;;;;5017982;28;20427;-89
2021/12/31 07:09:11;;;;;;;1.23;1.17;;;13.80;97.30;;;;;;5017201;28;20947;-90
2021/12/31 07:12:11;;;;;;;1.70;1.20;;;13.80;97.30;;;;;;5016508;28;20421;-89
2021/12/31 07:15:39;;;;;;;;;;;;;;;;;;;;;
2021/12/31 07:18:30;;;;;;;3.87;1.60;;;13.80;97.30;;;;;;4940040;29;20502;-91
2021/12/31 07:21:31;;;;;;;1.63;1.53;;;13.70;97.30;;;;;;4940099;29;20515;-91
2021/12/31 07:24:20;;;;;;;3.73;1.83;;;13.70;97.30;;;;;;4924860;29;20452;-88
2021/12/31 07:33:23;;;;;;;11.33;4.40;;;13.80;97.30;;;;;;4919848;29;20448;-90
2021/12/31 07:36:02;;;;;;;9.50;3.40;;;13.70;97.30;;;;;;4942631;29;20503;-91
2021/12/31 07:38:37;;;;;;;15.63;6.07;;;13.70;97.30;;;;;;4931922;29;20420;-88
2021/12/31 07:41:03;;;;;;;7.63;3.37;;;13.70;97.30;;;;;;4922703;29;20498;-90
2021/12/31 07:43:29;;;;;;;4.60;2.17;;;13.70;97.30;;;;;;4934988;29;20439;-89
2021/12/31 07:45:58;;;;;;;2.07;1.77;;;13.70;97.30;;;;;;4929053;29;20448;-90
2021/12/31 07:48:24;;;;;;;3.03;2.00;;;13.60;97.30;;;;;;4971939;28;20416;-90
2021/12/31 07:51:23;;;;;;;1.87;1.57;;;13.60;97.30;;;;;;5007446;28;20434;-90
2021/12/31 07:53:48;;;;;;;2.50;1.53;;;13.60;97.30;;;;;;5004104;28;20513;-91
2021/12/31 07:56:18;;;;;;;1.77;1.40;;;13.50;97.30;;;;;;5014756;28;20413;-90
2021/12/31 07:58:44;;;;;;;2.80;1.30;;;13.50;97.30;;;;;;5001644;28;20225;-91
2021/12/31 08:01:23;;;;;;;1.40;1.40;;;13.50;97.30;;;;;;4997606;28;20413;-90
2021/12/31 08:03:55;;;;;;;1.90;1.53;;;13.50;97.30;;;;;;5002884;28;20454;-88
2021/12/31 08:06:29;;;;;;;1.97;1.60;;;13.50;97.30;;;;;;4967022;28;20846;-91
2021/12/31 08:09:05;;;;;;;1.57;1.47;;;13.50;97.30;;;;;;4973059;28;20433;-90
2021/12/31 08:11:48;;;;;;;1.67;1.40;;;13.50;97.30;;;;;;4951980;29;20466;-90
2021/12/31 08:14:13;;;;;;;4.43;1.57;;;13.50;97.30;;;;;;5056706;22;20494;-91
2021/12/31 08:16:39;;;;;;;1.90;1.60;;;13.50;97.30;;;;;;5035797;28;20768;-91
2021/12/31 08:19:06;;;;;;;2.07;1.60;;;13.60;97.30;;;;;;5034542;28;20184;-90
2021/12/31 08:21:32;;;;;;;2.57;1.57;;;13.60;97.30;;;;;;5036545;28;20331;-91
2021/12/31 08:23:58;;;;;;;2.63;1.50;;;13.60;97.30;;;;;;5039742;28;20422;-90
2021/12/31 08:26:23;;;;;;;3.57;1.83;;;13.60;97.30;;;;;;5038456;28;20179;-90
2021/12/31 08:28:49;;;;;;;3.30;2.23;;;13.60;97.30;;;;;;5037500;28;20243;-91
2021/12/31 08:31:14;;;;;;;4.03;2.10;;;13.60;97.30;;;;;;5039037;28;20611;-90
2021/12/31 08:33:40;;;;;;;3.93;1.80;;;13.60;97.30;;;;;;5037222;28;20204;-90
2021/12/31 08:36:07;;;;;;;4.03;2.13;;;13.60;97.30;;;;;;5035638;28;20188;-90
2021/12/31 08:38:33;;;;;;;2.73;1.40;;;13.70;97.30;;;;;;5036346;28;20276;-90
2021/12/31 08:41:00;;;;;;;2.13;1.30;;;13.70;97.30;;;;;;5036311;28;20435;-90
2021/12/31 08:43:26;;;;;;;2.00;1.90;;;13.70;97.30;;;;;;5038255;28;20226;-92
2021/12/31 08:45:51;;;;;;;2.33;1.50;;;13.70;97.30;;;;;;5036799;28;20419;-90
2021/12/31 08:48:17;;;;;;;2.70;1.40;;;13.80;97.30;;;;;;5037113;28;20179;-91
2021/12/31 08:50:43;;;;;;;2.97;2.07;;;13.80;97.30;;;;;;5036429;28;20650;-91
2021/12/31 08:53:08;;;;;;;2.20;1.40;;;13.80;97.30;;;;;;5036292;28;20686;-91
2021/12/31 08:59:58;;;;;;;3.27;1.33;;;13.90;97.30;;;;;;4967914;28;20220;-87
2021/12/31 09:02:23;;;;;;;3.83;1.70;;;13.90;97.30;;;;;;4975491;28;20484;-91
2021/12/31 09:04:49;;;;;;;2.07;1.53;;;14.00;97.30;;;;;;5000609;28;20413;-91
2021/12/31 09:07:15;;;;;;;2.60;1.53;;;14.00;97.30;;;;;;5002686;28;20221;-90
2021/12/31 09:09:41;;;;;;;1.73;1.70;;;14.00;97.30;;;;;;5001474;28;20431;-90
2021/12/31 09:12:07;;;;;;;2.83;1.93;;;14.00;97.30;;;;;;5016733;28;20188;-91
2021/12/31 09:14:32;;;;;;;3.63;1.50;;;14.10;97.30;;;;;;5015741;28;20283;-92
2021/12/31 09:17:00;;;;;;;2.00;1.40;;;14.10;97.30;;;;;;5036679;28;20439;-92
2021/12/31 09:19:25;;;;;;;2.43;1.43;;;14.00;97.30;;;;;;5025436;28;20184;-91
2021/12/31 09:22:04;;;;;;;6.80;1.40;;;14.00;97.30;;;;;;5028593;28;20415;-93
2021/12/31 09:24:36;;;;;;;1.73;1.50;;;14.10;97.30;;;;;;5018510;28;20181;-89
2021/12/31 09:28:16;;;;;;;2.40;1.33;;;14.10;97.30;;;;;;5027380;28;20437;-89
2021/12/31 09:30:26;;;;;;;1.43;1.30;;;14.20;97.30;;;;;;5008758;28;20472;-91
2021/12/31 09:32:51;;;;;;;5.43;1.80;;;14.20;97.30;;;;;;5030896;23;20490;-81
2021/12/31 09:35:17;;;;;;;2.60;1.63;;;14.30;97.30;;;;;;5032458;28;20533;-81
2021/12/31 09:37:43;;;;;;;1.43;1.33;;;14.50;97.30;;;;;;5032719;28;20176;-81
2021/12/31 09:40:09;;;;;;;1.80;1.50;;;14.60;97.30;;;;;;5032951;28;20230;-82
2021/12/31 09:42:36;;;;;;;2.90;1.40;;;14.70;97.30;;;;;;4994190;28;20957;-82
2021/12/31 09:45:02;;;;;;;2.20;1.20;;;14.80;97.30;;;;;;4999269;28;20432;-82
2021/12/31 09:47:28;;;;;;;6.33;1.50;;;14.80;97.30;;;;;;4994188;28;20425;-80
2021/12/31 09:49:54;;;;;;;2.10;1.50;;;14.80;97.30;;;;;;5003215;28;20571;-78
2021/12/31 09:52:22;;;;;;;4.27;2.10;;;14.80;97.30;;;;;;5011826;28;20216;-80
2021/12/31 09:54:49;;;;;;;2.53;1.77;;;14.80;97.30;;;;;;5012146;28;20213;-80
2021/12/31 09:57:16;;;;;;;3.97;2.20;;;14.80;97.30;;;;;;5001938;28;20989;-80
2021/12/31 09:59:42;;;;;;;4.47;1.83;;;14.80;97.30;;;;;;5003855;28;20560;-81
2021/12/31 10:02:09;;;;;;;5.43;1.50;;;14.90;97.30;;;;;;5006137;28;20441;-79
2021/12/31 10:04:53;;;;;;;3.00;1.97;;;14.90;97.30;;;;;;5002208;28;20435;-80
2021/12/31 10:07:21;;;;;;;2.27;1.40;;;15.00;97.30;;;;;;5014085;28;20764;-81
2021/12/31 10:10:13;;;;;;;2.70;1.70;;;15.00;97.30;;;;;;5014434;28;20478;-81
2021/12/31 10:12:45;;;;;;;1.33;1.23;;;15.10;97.30;;;;;;5011634;28;20435;-81
2021/12/31 10:15:11;;;;;;;2.70;1.70;;;15.10;97.30;;;;;;5013889;28;20807;-80
2021/12/31 10:17:36;;;;;;;1.80;1.70;;;15.20;97.30;;;;;;5013936;28;20416;-80
2021/12/31 10:20:02;;;;;;;2.30;1.30;;;15.20;97.30;;;;;;5006714;28;20629;-81
2021/12/31 10:22:28;;;;;;;2.40;1.57;;;15.30;97.30;;;;;;5017343;28;20177;-80
2021/12/31 10:24:54;;;;;;;1.70;1.60;;;15.40;97.30;;;;;;5011021;28;20519;-81
2021/12/31 10:27:20;;;;;;;2.40;1.40;;;15.50;97.30;;;;;;4996111;28;20196;-81
2021/12/31 10:30:06;;;;;;;1.53;1.43;;;15.60;97.30;;;;;;4993809;28;20247;-81
2021/12/31 10:32:35;;;;;;;1.70;1.60;;;15.70;97.30;;;;;;4992993;28;20519;-81
2021/12/31 10:35:19;;;;;;;2.03;1.40;;;15.80;97.30;;;;;;5005910;28;20468;-80
2021/12/31 10:37:47;;;;;;;3.47;1.30;;;15.80;97.30;;;;;;5013667;28;20422;-80
2021/12/31 10:40:29;;;;;;;2.70;1.57;;;15.90;97.30;;;;;;5005834;28;20424;-81
2021/12/31 10:43:18;;;;;;;1.83;1.43;;;16.00;97.30;;;;;;5001760;28;20528;-81
2021/12/31 10:45:54;;;;;;;1.80;1.30;;;16.10;97.30;;;;;;5012206;28;20419;-80
2021/12/31 10:48:19;;;;;;;2.83;1.60;;;16.10;97.30;;;;;;5015908;28;20416;-82
2021/12/31 10:50:51;;;;;;;4.00;1.77;;;16.10;97.30;;;;;;5014331;28;20462;-79
2021/12/31 10:53:33;;;;;;;7.30;1.97;;;16.10;97.30;;;;;;5013084;28;20186;-81
2021/12/31 10:56:13;;;;;;;2.20;1.50;;;16.10;97.30;;;;;;5005675;28;20428;-79
2021/12/31 10:58:40;;;;;;;3.53;1.30;;;16.00;97.30;;;;;;5011794;28;20428;-80
2021/12/31 11:01:12;;;;;;;3.67;2.07;;;16.00;97.30;;;;;;5010648;28;20442;-81
2021/12/31 11:03:40;;;;;;;3.70;1.50;;;16.00;97.30;;;;;;5015952;28;20415;-81
2021/12/31 11:06:07;;;;;;;2.83;1.20;;;16.10;97.30;;;;;;4999612;28;20448;-83
2021/12/31 11:08:34;;;;;;;2.90;1.60;;;16.20;97.30;;;;;;5008061;28;20409;-81
2021/12/31 11:11:02;;;;;;;2.53;1.40;;;16.40;97.30;;;;;;4998248;28;20555;-80
2021/12/31 11:13:30;;;;;;;2.20;1.60;;;16.40;97.20;;;;;;5002904;28;20507;-80
2021/12/31 11:15:57;;;;;;;1.30;1.30;;;16.30;97.30;;;;;;4999904;28;20470;-81
2021/12/31 11:18:26;;;;;;;1.37;1.30;;;16.10;97.30;;;;;;5000466;28;20409;-81
2021/12/31 11:20:58;;;;;;;5.27;1.87;;;16.00;97.30;;;;;;5005724;28;20445;-82
2021/12/31 11:23:30;;;;;;;1.93;1.50;;;16.00;97.30;;;;;;5002007;28;20436;-82
2021/12/31 11:26:04;;;;;;;2.83;1.60;;;16.10;97.30;;;;;;5013995;28;20799;-82
2021/12/31 11:28:36;;;;;;;2.13;1.63;;;16.20;97.30;;;;;;5017424;28;20444;-80
2021/12/31 11:31:20;;;;;;;1.97;1.30;;;16.10;97.30;;;;;;5003260;28;20656;-82
2021/12/31 11:34:08;;;;;;;1.90;1.47;;;16.10;97.30;;;;;;5015007;28;20517;-82
2021/12/31 11:36:54;;;;;;;2.10;1.47;;;15.90;97.30;;;;;;5015473;28;20846;-79
2021/12/31 11:39:35;;;;;;;1.17;1.10;;;15.80;97.30;;;;;;5014032;28;20791;-79
2021/12/31 11:42:06;;;;;;;3.00;1.33;;;15.70;97.30;;;;;;5012677;28;20908;-79
2021/12/31 11:44:33;;;;;;;3.87;2.00;;;15.70;97.30;;;;;;5013465;28;20801;-80
2021/12/31 11:47:09;;;;;;;2.97;1.83;;;15.70;97.30;;;;;;5011450;28;20420;-78
2021/12/31 11:49:35;;;;;;;2.90;1.50;;;15.60;97.30;;;;;;5014549;28;20460;-80
2021/12/31 11:52:08;;;;;;;1.73;1.60;;;15.60;97.30;;;;;;5013603;28;20436;-80
2021/12/31 11:54:36;;;;;;;2.93;1.57;;;15.60;97.30;;;;;;5013981;28;20201;-80
2021/12/31 11:57:04;;;;;;;1.90;1.70;;;15.50;97.30;;;;;;5011266;28;20424;-80
2021/12/31 11:59:42;;;;;;;1.43;1.33;;;15.50;97.30;;;;;;5005927;28;20459;-80
2021/12/31 12:02:17;;;;;;;1.37;1.30;;;15.50;97.30;;;;;;5010356;28;20432;-80
2021/12/31 12:05:08;;;;;;;2.37;1.67;;;15.50;97.30;;;;;;5006603;28;20480;-79
2021/12/31 12:07:52;;;;;;;2.47;1.50;;;15.40;97.30;;;;;;5001407;28;20917;-80
2021/12/31 12:10:24;;;;;;;2.40;1.63;;;15.40;97.30;;;;;;5013865;28;20435;-81
2021/12/31 12:12:53;;;;;;;2.53;1.40;;;15.40;97.30;;;;;;5010908;28;20425;-80
2021/12/31 12:15:18;;;;;;;2.10;1.70;;;15.40;97.30;;;;;;5009729;28;20452;-80
2021/12/31 12:17:44;;;;;;;1.50;1.40;;;15.30;97.30;;;;;;4994500;28;20842;-80
2021/12/31 12:20:18;;;;;;;8.27;4.70;;;15.30;97.30;;;;;;4994295;28;20216;-80
2021/12/31 12:22:53;;;;;;;1.73;1.57;;;15.30;97.30;;;;;;4995295;28;20412;-77
2021/12/31 12:25:22;;;;;;;2.47;1.80;;;15.30;97.30;;;;;;4996364;28;20786;-78
2021/12/31 12:27:50;;;;;;;3.37;2.13;;;15.30;97.30;;;;;;5003263;28;20461;-79
2021/12/31 12:30:16;;;;;;;2.10;1.50;;;15.30;97.30;;;;;;5003099;28;20416;-79
2021/12/31 12:35:38;;;;;;;2.87;2.10;;;15.20;97.30;;;;;;4998096;28;20519;-80
2021/12/31 12:38:11;;;;;;;3.20;1.60;;;15.20;97.30;;;;;;5001464;28;20420;-79
2021/12/31 12:40:44;;;;;;;2.17;1.43;;;15.20;97.30;;;;;;5005817;28;20436;-77
2021/12/31 12:43:15;;;;;;;2.10;1.80;;;15.20;97.30;;;;;;5010655;28;20948;-78
2021/12/31 12:45:44;;;;;;;1.90;1.40;;;15.20;97.30;;;;;;5006193;28;20421;-78
2021/12/31 12:48:10;;;;;;;2.90;1.50;;;15.10;97.30;;;;;;5004090;28;20420;-79
2021/12/31 12:50:37;;;;;;;1.57;1.30;;;15.20;97.30;;;;;;5001009;28;20468;-80
2021/12/31 12:53:03;;;;;;;2.60;1.70;;;15.10;97.30;;;;;;5009734;28;20424;-80
2021/12/31 12:55:30;;;;;;;2.77;2.20;;;15.10;97.30;;;;;;4998152;28;20471;-81
2021/12/31 12:58:01;;;;;;;2.17;1.40;;;15.10;97.30;;;;;;5003307;28;20409;-80
2021/12/31 13:00:40;;;;;;;3.73;1.53;;;15.10;97.30;;;;;;4999413;28;20785;-80
2021/12/31 13:03:08;;;;;;;1.67;1.33;;;15.10;97.30;;;;;;5010068;28;20412;-80
2021/12/31 13:05:35;;;;;;;2.87;1.60;;;15.00;97.30;;;;;;5008182;28;20571;-80
2021/12/31 13:08:00;;;;;;;6.60;1.63;;;15.00;97.30;;;;;;4993488;28;20413;-81
2021/12/31 13:10:28;;;;;;;1.60;1.40;;;15.00;97.30;;;;;;5012230;28;20465;-80
2021/12/31 13:12:54;;;;;;;5.93;1.57;;;15.00;97.30;;;;;;5031004;28;20187;-80
2021/12/31 13:15:21;;;;;;;3.37;1.57;;;15.00;97.30;;;;;;5031653;28;20722;-80